createdAt,value
2022-08-12T00:00:48.124Z,3.70
2022-08-12T00:03:40.602Z,3.15
2022-08-12T00:06:33.034Z,3.25
2022-08-12T00:09:26.413Z,3.33
2022-08-12T00:12:17.408Z,3.10
2022-08-12T00:15:08.006Z,3.30
2022-08-12T00:17:59.041Z,3.35
2022-08-12T00:20:51.239Z,3.28
2022-08-12T00:23:42.518Z,3.70
2022-08-12T00:26:34.023Z,3.35
2022-08-12T00:29:25.183Z,3.25
2022-08-12T00:32:35.207Z,3.72
2022-08-12T00:35:33.596Z,3.30
2022-08-12T00:38:29.179Z,3.60
2022-08-12T00:41:21.850Z,3.20
2022-08-12T00:43:56.437Z,3.42
2022-08-12T00:46:49.637Z,3.30
2022-08-12T00:49:25.024Z,3.65
2022-08-12T00:52:09.822Z,3.03
2022-08-12T00:54:47.165Z,3.63
2022-08-12T00:57:26.100Z,3.90
2022-08-12T01:00:01.483Z,3.97
2022-08-12T01:02:37.102Z,3.83
2022-08-12T01:05:30.886Z,3.80
2022-08-12T01:08:23.154Z,3.20
2022-08-12T01:11:15.854Z,3.40
2022-08-12T01:13:50.912Z,3.63
2022-08-12T01:16:24.510Z,3.60
2022-08-12T01:19:00.213Z,3.50
2022-08-12T01:21:58.342Z,3.75
2022-08-12T01:25:01.893Z,3.88
2022-08-12T01:27:40.009Z,3.60
2022-08-12T01:30:16.773Z,3.45
2022-08-12T01:32:51.125Z,3.53
2022-08-12T01:35:25.490Z,3.20
2022-08-12T01:38:05.410Z,3.85
2022-08-12T01:40:46.977Z,3.67
2022-08-12T01:43:24.714Z,3.70
2022-08-12T01:46:08.936Z,4.10
2022-08-12T01:49:01.317Z,3.83
2022-08-12T01:52:21.046Z,4.15
2022-08-12T01:54:44.072Z,3.88
2022-08-12T01:57:58.045Z,3.75
2022-08-12T02:00:20.642Z,4.03
2022-08-12T02:03:24.633Z,3.72
2022-08-12T02:06:29.149Z,3.80
2022-08-12T02:09:22.842Z,3.83
2022-08-12T02:12:06.049Z,4.00
2022-08-12T02:14:54.113Z,3.60
2022-08-12T02:17:56.134Z,4.03
2022-08-12T02:20:52.269Z,3.78
2022-08-12T02:23:27.970Z,3.90
2022-08-12T02:26:06.971Z,3.80
2022-08-12T02:28:40.157Z,4.00
2022-08-12T02:31:15.928Z,4.30
2022-08-12T02:33:49.550Z,3.92
2022-08-12T02:36:23.116Z,4.43
2022-08-12T02:38:59.213Z,4.20
2022-08-12T02:41:36.666Z,4.07
2022-08-12T02:44:11.559Z,4.00
2022-08-12T02:46:50.367Z,4.22
2022-08-12T02:49:31.335Z,4.22
2022-08-12T02:52:05.856Z,4.05
2022-08-12T02:54:40.994Z,4.50
2022-08-12T02:57:16.459Z,3.72
2022-08-12T02:59:50.740Z,4.70
2022-08-12T03:02:31.820Z,4.15
2022-08-12T03:05:06.696Z,4.45
2022-08-12T03:07:55.986Z,4.35
2022-08-12T03:10:40.455Z,4.20
2022-08-12T03:13:18.593Z,4.25
2022-08-12T03:15:52.453Z,4.47
2022-08-12T03:18:32.275Z,4.70
2022-08-12T03:21:06.224Z,4.30
2022-08-12T03:23:42.930Z,4.47
2022-08-12T03:26:16.436Z,4.80
2022-08-12T03:28:54.028Z,5.07
2022-08-12T03:31:32.320Z,4.30
2022-08-12T03:34:10.495Z,4.65
2022-08-12T03:36:44.099Z,4.90
2022-08-12T03:39:23.854Z,4.85
2022-08-12T03:42:23.499Z,4.75
2022-08-12T03:45:32.782Z,5.38
2022-08-12T03:48:29.998Z,5.07
2022-08-12T03:51:23.027Z,4.90
2022-08-12T03:54:14.333Z,4.55
2022-08-12T03:57:04.751Z,4.47
2022-08-12T03:59:55.448Z,5.05
2022-08-12T04:02:28.585Z,4.78
2022-08-12T04:05:03.034Z,4.88
2022-08-12T04:07:38.875Z,4.53
2022-08-12T04:10:52.154Z,5.07
2022-08-12T04:13:25.648Z,4.85
2022-08-12T04:16:02.192Z,4.70
2022-08-12T04:18:36.240Z,5.00
2022-08-12T04:21:10.590Z,4.97
2022-08-12T04:23:48.508Z,4.97
2022-08-12T04:26:22.007Z,4.53
2022-08-12T04:28:58.821Z,5.97
2022-08-12T04:31:33.237Z,4.90
2022-08-12T04:34:07.248Z,5.47
2022-08-12T04:36:42.193Z,4.63
2022-08-12T04:39:17.546Z,4.70
2022-08-12T04:41:58.304Z,4.40
2022-08-12T04:44:33.374Z,5.15
2022-08-12T04:47:06.725Z,4.70
2022-08-12T04:49:41.063Z,4.88
2022-08-12T04:52:15.000Z,4.72
2022-08-12T04:54:49.715Z,5.03
2022-08-12T04:57:22.957Z,4.90
2022-08-12T04:59:56.074Z,5.68
2022-08-12T05:02:29.265Z,5.47
2022-08-12T05:05:04.622Z,4.65
2022-08-12T05:07:45.781Z,5.80
2022-08-12T05:10:33.837Z,5.68
2022-08-12T05:13:12.152Z,4.97
2022-08-12T05:16:03.582Z,4.93
2022-08-12T05:18:40.455Z,5.47
2022-08-12T05:21:19.141Z,4.80
2022-08-12T05:23:52.348Z,5.60
2022-08-12T05:26:27.920Z,4.70
2022-08-12T05:29:01.110Z,5.20
2022-08-12T05:31:47.541Z,4.97
2022-08-12T05:34:26.265Z,4.53
2022-08-12T05:37:00.036Z,4.68
2022-08-12T05:39:33.216Z,4.50
2022-08-12T05:42:08.832Z,4.35
2022-08-12T05:44:42.015Z,4.82
2022-08-12T05:47:15.164Z,4.22
2022-08-12T05:49:48.368Z,4.82
2022-08-12T05:52:21.485Z,4.50
2022-08-12T05:54:57.798Z,4.10
2022-08-12T05:57:32.687Z,4.10
2022-08-12T06:00:10.170Z,4.65
2022-08-12T06:02:43.704Z,3.78
2022-08-12T06:05:17.162Z,3.67
2022-08-12T06:08:01.578Z,3.90
2022-08-12T06:10:37.821Z,4.18
2022-08-12T06:13:15.201Z,4.07
2022-08-12T06:16:02.223Z,3.58
2022-08-12T06:18:35.576Z,3.63
2022-08-12T06:21:09.186Z,3.97
2022-08-12T06:23:43.599Z,4.03
2022-08-12T06:26:20.363Z,4.10
2022-08-12T06:28:56.815Z,4.40
2022-08-12T06:31:30.214Z,4.00
2022-08-12T06:35:23.651Z,3.80
2022-08-12T06:36:56.781Z,3.53
2022-08-12T06:39:30.401Z,3.80
2022-08-12T06:42:33.242Z,3.45
2022-08-12T06:45:12.225Z,3.88
2022-08-12T06:47:45.858Z,3.58
2022-08-12T06:50:19.205Z,3.58
2022-08-12T06:52:52.948Z,3.08
2022-08-12T06:55:26.147Z,3.22
2022-08-12T06:58:08.045Z,3.30
2022-08-12T07:00:46.639Z,2.95
2022-08-12T07:03:23.563Z,3.00
2022-08-12T07:05:59.144Z,3.47
2022-08-12T07:08:35.190Z,3.30
2022-08-12T07:11:11.913Z,3.33
2022-08-12T07:14:11.871Z,3.03
2022-08-12T07:16:53.690Z,2.85
2022-08-12T07:19:40.565Z,2.88
2022-08-12T07:22:18.795Z,2.63
2022-08-12T07:25:12.535Z,2.88
2022-08-12T07:27:46.663Z,2.53
2022-08-12T07:30:19.951Z,2.80
2022-08-12T07:32:58.554Z,2.45
2022-08-12T07:35:35.062Z,2.70
2022-08-12T07:38:29.894Z,2.17
2022-08-12T07:41:14.683Z,2.40
2022-08-12T07:43:52.006Z,2.40
2022-08-12T07:46:31.153Z,2.50
2022-08-12T07:49:09.322Z,2.70
2022-08-12T07:51:44.056Z,2.60
2022-08-12T07:54:17.199Z,2.20
2022-08-12T07:56:50.589Z,2.50
2022-08-12T07:59:24.087Z,2.65
2022-08-12T08:02:01.240Z,2.38
2022-08-12T08:04:53.545Z,2.28
2022-08-12T08:07:30.468Z,2.30
2022-08-12T08:10:10.957Z,2.22
2022-08-12T08:12:58.851Z,2.50
2022-08-12T08:16:01.334Z,2.38
2022-08-12T08:18:28.882Z,2.63
2022-08-12T08:21:04.623Z,2.67
2022-08-12T08:23:57.586Z,2.35
2022-08-12T08:26:33.027Z,2.25
2022-08-12T08:29:06.240Z,2.70
2022-08-12T08:31:45.478Z,2.30
2022-08-12T08:34:40.244Z,2.22
2022-08-12T08:37:17.243Z,2.58
2022-08-12T08:39:50.702Z,2.60
2022-08-12T08:42:40.559Z,2.50
2022-08-12T08:45:14.108Z,2.30
2022-08-12T08:47:47.916Z,2.30
2022-08-12T08:50:21.578Z,2.60
2022-08-12T08:52:56.109Z,2.30
2022-08-12T08:55:47.967Z,2.30
2022-08-12T08:58:22.403Z,2.13
2022-08-12T09:00:56.342Z,2.40
2022-08-12T09:05:09.887Z,2.75
2022-08-12T09:06:37.245Z,2.30
2022-08-12T09:09:14.698Z,2.40
2022-08-12T09:14:58.853Z,2.55
2022-08-12T09:17:42.068Z,2.30
2022-08-12T09:20:29.430Z,2.30
2022-08-12T09:23:07.906Z,2.40
2022-08-12T09:26:03.842Z,2.25
2022-08-12T09:28:37.995Z,2.10
2022-08-12T09:32:03.696Z,2.00
2022-08-12T09:34:26.031Z,2.20
2022-08-12T09:37:01.571Z,1.95
2022-08-12T09:40:02.511Z,2.15
2022-08-12T09:42:54.421Z,2.13
2022-08-12T09:46:06.411Z,2.03
2022-08-12T09:48:34.900Z,1.98
2022-08-12T09:51:16.622Z,2.30
2022-08-12T09:54:08.611Z,2.22
2022-08-12T09:57:03.060Z,2.10
2022-08-12T10:00:15.758Z,2.10
2022-08-12T10:02:44.263Z,2.10
2022-08-12T10:06:26.195Z,1.95
2022-08-12T10:08:18.547Z,2.05
2022-08-12T10:11:18.392Z,1.88
2022-08-12T10:13:56.880Z,1.88
2022-08-12T10:16:38.610Z,2.10
2022-08-12T10:19:17.334Z,2.40
2022-08-12T10:21:56.975Z,2.13
2022-08-12T10:24:30.537Z,2.00
2022-08-12T10:27:21.336Z,2.13
2022-08-12T10:30:03.963Z,2.10
2022-08-12T10:32:59.564Z,2.08
2022-08-12T10:35:37.988Z,2.08
2022-08-12T10:38:37.407Z,2.10
2022-08-12T10:41:58.377Z,2.42
2022-08-12T10:44:22.440Z,1.85
2022-08-12T10:46:58.819Z,2.15
2022-08-12T10:50:04.543Z,2.13
2022-08-12T10:52:47.492Z,2.00
2022-08-12T10:55:26.060Z,2.05
2022-08-12T10:58:15.268Z,2.00
2022-08-12T11:01:26.127Z,2.50
2022-08-12T11:04:18.927Z,2.00
2022-08-12T11:07:09.298Z,2.10
2022-08-12T11:09:59.939Z,2.20
2022-08-12T11:12:59.307Z,2.28
2022-08-12T11:16:19.134Z,1.80
2022-08-12T11:18:27.560Z,2.13
2022-08-12T11:21:01.081Z,2.10
2022-08-12T11:23:40.431Z,1.98
2022-08-12T11:26:14.203Z,2.20
2022-08-12T11:28:59.092Z,2.10
2022-08-12T11:31:40.922Z,2.20
2022-08-12T11:34:53.562Z,2.40
2022-08-12T11:37:26.984Z,2.10
2022-08-12T11:40:01.461Z,2.13
2022-08-12T11:42:35.208Z,1.95
2022-08-12T11:45:10.735Z,2.38
2022-08-12T11:47:43.856Z,1.73
2022-08-12T11:50:19.698Z,2.20
2022-08-12T11:52:55.592Z,2.10
2022-08-12T11:55:33.056Z,1.90
2022-08-12T11:58:14.621Z,1.98
2022-08-12T12:03:54.801Z,2.05
2022-08-12T12:06:28.152Z,2.30
2022-08-12T12:09:01.276Z,2.03
2022-08-12T12:11:48.655Z,2.10
2022-08-12T12:14:38.032Z,2.00
2022-08-12T12:17:12.490Z,2.05
2022-08-12T12:19:46.192Z,2.13
2022-08-12T12:22:23.398Z,2.10
2022-08-12T12:25:12.651Z,2.20
2022-08-12T12:28:05.693Z,2.30
2022-08-12T12:30:40.390Z,2.05
2022-08-12T12:33:46.123Z,2.45
2022-08-12T12:36:29.723Z,1.85
2022-08-12T12:39:03.430Z,1.98
2022-08-12T12:42:45.366Z,1.88
2022-08-12T12:44:38.677Z,1.98
2022-08-12T12:47:28.679Z,2.05
2022-08-12T12:50:02.530Z,1.70
2022-08-12T12:52:39.502Z,2.10
2022-08-12T12:55:16.293Z,2.05
2022-08-12T12:58:00.194Z,2.08
2022-08-12T13:00:35.419Z,1.65
2022-08-12T13:03:19.010Z,1.63
2022-08-12T13:05:53.951Z,1.80
2022-08-12T13:08:35.852Z,1.90
2022-08-12T13:11:09.334Z,2.17
2022-08-12T13:14:08.101Z,1.77
2022-08-12T13:16:38.243Z,2.10
2022-08-12T13:19:17.381Z,1.92
2022-08-12T13:22:17.955Z,1.90
2022-08-12T13:24:55.450Z,1.77
2022-08-12T13:27:36.324Z,1.77
2022-08-12T13:30:12.540Z,1.75
2022-08-12T13:32:57.357Z,1.55
2022-08-12T13:36:05.646Z,1.77
2022-08-12T13:38:36.321Z,1.88
2022-08-12T13:41:32.017Z,1.70
2022-08-12T13:44:10.560Z,1.75
2022-08-12T13:46:43.949Z,1.73
2022-08-12T13:49:55.418Z,1.60
2022-08-12T13:52:27.066Z,1.50
2022-08-12T13:55:00.182Z,1.48
2022-08-12T13:57:44.723Z,1.90
2022-08-12T14:00:20.396Z,1.83
2022-08-12T14:03:07.306Z,1.70
2022-08-12T14:05:45.599Z,2.08
2022-08-12T14:08:21.278Z,1.90
2022-08-12T14:10:55.777Z,1.73
2022-08-12T14:14:06.258Z,1.60
2022-08-12T14:16:37.934Z,1.90
2022-08-12T14:19:22.187Z,1.80
2022-08-12T14:22:04.572Z,1.88
2022-08-12T14:24:40.582Z,1.60
2022-08-12T14:27:14.371Z,1.50
2022-08-12T14:30:15.362Z,1.58
2022-08-12T14:32:50.552Z,1.33
2022-08-12T14:35:27.501Z,1.50
2022-08-12T14:38:01.966Z,1.40
2022-08-12T14:40:35.288Z,1.70
2022-08-12T14:43:08.416Z,1.60
2022-08-12T14:45:49.022Z,1.65
2022-08-12T14:48:24.458Z,1.40
2022-08-12T14:52:10.600Z,1.45
2022-08-12T14:57:19.633Z,1.60
2022-08-12T14:59:58.663Z,1.70
2022-08-12T15:02:33.139Z,1.15
2022-08-12T15:05:08.266Z,1.50
2022-08-12T15:07:49.989Z,1.67
2022-08-12T15:10:32.360Z,1.40
2022-08-12T15:13:08.372Z,1.52
2022-08-12T15:15:45.770Z,1.40
2022-08-12T15:18:22.911Z,1.52
2022-08-12T15:21:03.547Z,1.10
2022-08-12T15:23:54.858Z,1.33
2022-08-12T15:26:36.708Z,1.70
2022-08-12T15:29:12.558Z,1.60
2022-08-12T15:32:01.973Z,1.65
2022-08-12T15:34:38.896Z,1.27
2022-08-12T15:37:12.139Z,1.48
2022-08-12T15:40:01.187Z,1.10
2022-08-12T15:42:36.253Z,1.50
2022-08-12T15:45:10.581Z,1.25
2022-08-12T15:47:54.508Z,1.15
2022-08-12T15:50:47.919Z,1.20
2022-08-12T15:53:40.494Z,1.35
2022-08-12T15:56:14.156Z,1.05
2022-08-12T15:58:53.131Z,1.20
2022-08-12T16:01:28.791Z,1.10
2022-08-12T16:04:13.499Z,1.17
2022-08-12T16:07:05.517Z,1.08
2022-08-12T16:09:56.411Z,1.20
2022-08-12T16:12:42.097Z,1.02
2022-08-12T16:15:22.002Z,0.98
2022-08-12T16:18:17.780Z,1.05
2022-08-12T16:20:52.029Z,1.00
2022-08-12T16:23:51.644Z,1.00
2022-08-12T16:26:32.180Z,1.15
2022-08-12T16:29:14.518Z,1.10
2022-08-12T16:31:50.684Z,1.25
2022-08-12T16:34:40.074Z,1.10
2022-08-12T16:37:17.427Z,1.00
2022-08-12T16:40:00.883Z,0.90
2022-08-12T16:42:41.936Z,1.00
2022-08-12T16:45:15.429Z,1.30
2022-08-12T16:47:58.297Z,1.17
2022-08-12T16:50:33.008Z,1.33
2022-08-12T16:53:06.246Z,1.20
2022-08-12T16:55:42.302Z,1.13
2022-08-12T16:58:27.960Z,1.23
2022-08-12T17:01:03.325Z,1.17
2022-08-12T17:03:38.175Z,1.13
2022-08-12T17:06:22.561Z,1.02
2022-08-12T17:09:08.630Z,1.08
2022-08-12T17:11:50.690Z,1.15
2022-08-12T17:14:24.936Z,1.25
2022-08-12T17:17:04.584Z,1.10
2022-08-12T17:20:34.741Z,1.00
2022-08-12T17:22:59.995Z,0.95
2022-08-12T17:25:34.446Z,1.00
2022-08-12T17:28:07.639Z,1.02
2022-08-12T17:30:42.950Z,1.20
2022-08-12T17:33:24.876Z,1.23
2022-08-12T17:36:05.639Z,1.20
2022-08-12T17:38:38.896Z,1.10
2022-08-12T17:41:23.238Z,1.13
2022-08-12T17:44:07.931Z,1.10
2022-08-12T17:46:41.073Z,1.00
2022-08-12T17:50:01.444Z,1.10
2022-08-12T17:52:10.585Z,1.20
2022-08-12T17:54:46.650Z,1.13
2022-08-12T17:57:22.325Z,1.10
2022-08-12T17:59:58.124Z,1.13
2022-08-12T18:02:34.626Z,1.23
2022-08-12T18:05:10.074Z,1.20
2022-08-12T18:07:46.131Z,1.17
2022-08-12T18:10:36.399Z,1.25
2022-08-12T18:13:10.576Z,1.13
2022-08-12T18:16:03.933Z,1.30
2022-08-12T18:18:39.286Z,1.00
2022-08-12T18:21:16.108Z,1.30
2022-08-12T18:23:53.874Z,1.50
2022-08-12T18:26:29.664Z,1.60
2022-08-12T18:29:03.152Z,1.50
2022-08-12T18:31:44.024Z,1.55
2022-08-12T18:34:20.505Z,1.60
2022-08-12T18:36:55.892Z,1.50
2022-08-12T18:39:51.280Z,1.55
2022-08-12T18:42:27.197Z,1.40
2022-08-12T18:45:02.303Z,1.33
2022-08-12T18:47:46.952Z,1.50
2022-08-12T18:50:25.163Z,1.40
2022-08-12T18:52:58.972Z,1.75
2022-08-12T18:55:37.590Z,1.60
2022-08-12T18:58:13.971Z,1.60
2022-08-12T19:00:55.751Z,1.67
2022-08-12T19:03:39.703Z,1.33
2022-08-12T19:06:16.169Z,1.48
2022-08-12T19:08:53.772Z,1.55
2022-08-12T19:11:45.734Z,1.60
2022-08-12T19:14:28.960Z,1.45
2022-08-12T19:17:05.113Z,1.40
2022-08-12T19:19:41.775Z,1.52
2022-08-12T19:22:28.626Z,1.60
2022-08-12T19:25:20.436Z,1.50
2022-08-12T19:27:57.737Z,1.52
2022-08-12T19:30:52.495Z,1.70
2022-08-12T19:33:25.935Z,1.40
2022-08-12T19:36:07.556Z,1.63
2022-08-12T19:38:58.017Z,1.58
2022-08-12T19:41:42.880Z,1.40
2022-08-12T19:44:37.986Z,1.60
2022-08-12T19:47:16.255Z,1.77
2022-08-12T19:49:52.937Z,1.45
2022-08-12T19:52:33.716Z,1.38
2022-08-12T19:55:11.616Z,1.38
2022-08-12T19:58:01.466Z,1.88
2022-08-12T20:00:41.018Z,1.40
2022-08-12T20:03:38.606Z,1.50
2022-08-12T20:06:11.116Z,1.58
2022-08-12T20:08:56.329Z,1.48
2022-08-12T20:12:14.442Z,1.30
2022-08-12T20:14:23.753Z,1.65
2022-08-12T20:17:02.692Z,1.60
2022-08-12T20:20:16.338Z,1.50
2022-08-12T20:22:35.001Z,1.52
2022-08-12T20:25:10.534Z,1.60
2022-08-12T20:28:05.260Z,1.60
2022-08-12T20:30:53.585Z,1.60
2022-08-12T20:33:50.782Z,1.85
2022-08-12T20:36:42.909Z,2.10
2022-08-12T20:39:52.767Z,2.10
2022-08-12T20:42:11.931Z,1.80
2022-08-12T20:44:45.467Z,1.70
2022-08-12T20:47:20.045Z,1.85
2022-08-12T20:50:00.124Z,1.92
2022-08-12T20:52:34.039Z,1.77
2022-08-12T20:55:15.629Z,1.70
2022-08-12T20:58:02.828Z,1.80
2022-08-12T21:00:38.629Z,1.92
2022-08-12T21:03:29.566Z,2.00
2022-08-12T21:06:35.936Z,2.13
2022-08-12T21:09:09.184Z,1.70
2022-08-12T21:11:42.811Z,1.95
2022-08-12T21:14:17.901Z,1.90
2022-08-12T21:17:13.218Z,2.00
2022-08-12T21:19:52.075Z,1.98
2022-08-12T21:22:33.376Z,1.70
2022-08-12T21:25:14.599Z,2.00
2022-08-12T21:27:59.553Z,1.60
2022-08-12T21:30:37.596Z,1.75
2022-08-12T21:33:14.804Z,1.60
2022-08-12T21:35:50.520Z,1.83
2022-08-12T21:38:26.400Z,1.90
2022-08-12T21:41:15.663Z,2.08
2022-08-12T21:43:50.352Z,2.00
2022-08-12T21:46:34.584Z,2.22
2022-08-12T21:49:09.600Z,1.90
2022-08-12T21:51:49.767Z,2.00
2022-08-12T21:54:26.105Z,1.90
2022-08-12T21:57:00.865Z,2.15
2022-08-12T21:59:34.230Z,2.03
2022-08-12T22:02:40.321Z,2.10
2022-08-12T22:05:39.336Z,1.95
2022-08-12T22:08:25.501Z,2.00
2022-08-12T22:11:00.806Z,2.30
2022-08-12T22:14:02.580Z,1.98
2022-08-12T22:16:31.013Z,2.17
2022-08-12T22:19:07.479Z,2.13
2022-08-12T22:21:52.241Z,2.35
2022-08-12T22:24:30.066Z,2.30
2022-08-12T22:27:31.756Z,2.40
2022-08-12T22:30:20.211Z,2.03
2022-08-12T22:32:55.105Z,2.08
2022-08-12T22:35:56.054Z,2.17
2022-08-12T22:38:29.049Z,2.03
2022-08-12T22:41:06.405Z,2.33
2022-08-12T22:44:01.128Z,2.00
2022-08-12T22:46:54.460Z,2.10
2022-08-12T22:49:49.338Z,2.00
2022-08-12T22:52:24.223Z,2.05
2022-08-12T22:55:04.076Z,2.33
2022-08-12T22:57:53.252Z,2.55
2022-08-12T23:00:29.291Z,3.35
2022-08-12T23:03:03.812Z,2.80
2022-08-12T23:06:09.999Z,2.08
2022-08-12T23:08:32.047Z,2.42
2022-08-12T23:11:07.578Z,2.17
2022-08-12T23:13:54.658Z,2.25
2022-08-12T23:16:34.120Z,2.28
2022-08-12T23:19:17.785Z,2.33
2022-08-12T23:22:04.394Z,2.30
2022-08-12T23:24:55.947Z,2.30
2022-08-12T23:27:52.132Z,2.38
2022-08-12T23:30:32.505Z,2.42
2022-08-12T23:33:59.624Z,2.47
2022-08-12T23:36:07.368Z,2.60
2022-08-12T23:38:45.976Z,2.35
2022-08-12T23:41:56.564Z,2.30
2022-08-12T23:44:33.562Z,2.67
2022-08-12T23:47:09.787Z,2.33
2022-08-12T23:49:57.487Z,2.63
2022-08-12T23:52:34.763Z,2.58
2022-08-12T23:55:24.983Z,2.60
2022-08-12T23:58:22.529Z,2.60
